sensor_id;sensor_type;location;lat;lon;timestamp;P1;durP1;ratioP1;P2;durP2;ratioP2
76157;SDS011;64907;51.574;6.502;2024-01-27T00:01:32;21.27;;;4.70;;
76157;SDS011;64907;51.574;6.502;2024-01-27T00:03:58;12.93;;;4.75;;
76157;SDS011;64907;51.574;6.502;2024-01-27T00:08:58;18.63;;;5.28;;
76157;SDS011;64907;51.574;6.502;2024-01-27T00:11:23;13.43;;;5.20;;
76157;SDS011;64907;51.574;6.502;2024-01-27T00:13:49;29.45;;;5.88;;
76157;SDS011;64907;51.574;6.502;2024-01-27T00:16:14;23.08;;;4.90;;
76157;SDS011;64907;51.574;6.502;2024-01-27T00:18:40;16.05;;;5.10;;
76157;SDS011;64907;51.574;6.502;2024-01-27T00:21:17;19.45;;;5.35;;
76157;SDS011;64907;51.574;6.502;2024-01-27T00:23:42;14.85;;;6.00;;
76157;SDS011;64907;51.574;6.502;2024-01-27T00:26:07;21.80;;;5.03;;
76157;SDS011;64907;51.574;6.502;2024-01-27T00:28:33;19.35;;;6.13;;
76157;SDS011;64907;51.574;6.502;2024-01-27T00:30:58;15.27;;;5.57;;
76157;SDS011;64907;51.574;6.502;2024-01-27T00:33:23;29.63;;;5.28;;
76157;SDS011;64907;51.574;6.502;2024-01-27T00:35:48;24.70;;;5.65;;
76157;SDS011;64907;51.574;6.502;2024-01-27T00:38:14;17.75;;;5.28;;
76157;SDS011;64907;51.574;6.502;2024-01-27T00:40:46;15.15;;;5.03;;
76157;SDS011;64907;51.574;6.502;2024-01-27T00:43:11;18.25;;;5.30;;
76157;SDS011;64907;51.574;6.502;2024-01-27T00:45:36;13.48;;;4.68;;
76157;SDS011;64907;51.574;6.502;2024-01-27T00:48:01;13.20;;;5.40;;
76157;SDS011;64907;51.574;6.502;2024-01-27T00:50:26;22.42;;;6.03;;
76157;SDS011;64907;51.574;6.502;2024-01-27T00:52:52;17.58;;;5.88;;
76157;SDS011;64907;51.574;6.502;2024-01-27T00:55:17;24.23;;;6.07;;
76157;SDS011;64907;51.574;6.502;2024-01-27T00:57:42;19.52;;;6.10;;
76157;SDS011;64907;51.574;6.502;2024-01-27T01:00:09;18.40;;;5.82;;
76157;SDS011;64907;51.574;6.502;2024-01-27T01:02:34;23.55;;;5.50;;
76157;SDS011;64907;51.574;6.502;2024-01-27T01:05:00;18.60;;;5.93;;
76157;SDS011;64907;51.574;6.502;2024-01-27T01:07:25;23.55;;;6.68;;
76157;SDS011;64907;51.574;6.502;2024-01-27T01:09:50;18.50;;;6.13;;
76157;SDS011;64907;51.574;6.502;2024-01-27T01:12:15;24.42;;;5.95;;
76157;SDS011;64907;51.574;6.502;2024-01-27T01:14:41;13.52;;;5.38;;
76157;SDS011;64907;51.574;6.502;2024-01-27T01:17:06;17.52;;;5.20;;
76157;SDS011;64907;51.574;6.502;2024-01-27T01:19:31;15.65;;;6.32;;
76157;SDS011;64907;51.574;6.502;2024-01-27T01:24:38;21.80;;;5.78;;
76157;SDS011;64907;51.574;6.502;2024-01-27T01:27:04;25.50;;;6.03;;
76157;SDS011;64907;51.574;6.502;2024-01-27T01:29:29;27.63;;;7.60;;
76157;SDS011;64907;51.574;6.502;2024-01-27T01:31:54;18.65;;;6.00;;
76157;SDS011;64907;51.574;6.502;2024-01-27T01:34:19;18.23;;;7.22;;
76157;SDS011;64907;51.574;6.502;2024-01-27T01:36:45;15.63;;;6.33;;
76157;SDS011;64907;51.574;6.502;2024-01-27T01:39:11;18.52;;;6.38;;
76157;SDS011;64907;51.574;6.502;2024-01-27T01:41:36;25.92;;;6.90;;
76157;SDS011;64907;51.574;6.502;2024-01-27T01:44:01;26.90;;;6.68;;
76157;SDS011;64907;51.574;6.502;2024-01-27T01:46:26;23.58;;;7.05;;
76157;SDS011;64907;51.574;6.502;2024-01-27T01:48:54;19.08;;;6.70;;
76157;SDS011;64907;51.574;6.502;2024-01-27T01:51:19;19.33;;;6.55;;
76157;SDS011;64907;51.574;6.502;2024-01-27T01:53:45;18.85;;;6.20;;
76157;SDS011;64907;51.574;6.502;2024-01-27T01:56:13;21.65;;;6.95;;
76157;SDS011;64907;51.574;6.502;2024-01-27T01:58:39;20.73;;;6.53;;
76157;SDS011;64907;51.574;6.502;2024-01-27T02:01:04;21.63;;;7.40;;
76157;SDS011;64907;51.574;6.502;2024-01-27T02:03:38;25.48;;;6.50;;
76157;SDS011;64907;51.574;6.502;2024-01-27T02:06:04;24.98;;;6.30;;
76157;SDS011;64907;51.574;6.502;2024-01-27T02:08:29;15.85;;;6.38;;
76157;SDS011;64907;51.574;6.502;2024-01-27T02:13:23;21.73;;;7.20;;
76157;SDS011;64907;51.574;6.502;2024-01-27T02:15:48;30.75;;;7.70;;
76157;SDS011;64907;51.574;6.502;2024-01-27T02:18:14;15.65;;;6.93;;
76157;SDS011;64907;51.574;6.502;2024-01-27T02:23:08;14.60;;;7.43;;
76157;SDS011;64907;51.574;6.502;2024-01-27T02:25:34;18.35;;;6.47;;
76157;SDS011;64907;51.574;6.502;2024-01-27T02:28:02;26.35;;;7.43;;
76157;SDS011;64907;51.574;6.502;2024-01-27T02:30:28;24.25;;;7.20;;
76157;SDS011;64907;51.574;6.502;2024-01-27T02:32:53;21.20;;;7.32;;
76157;SDS011;64907;51.574;6.502;2024-01-27T02:35:18;23.98;;;7.25;;
76157;SDS011;64907;51.574;6.502;2024-01-27T02:37:43;16.92;;;8.05;;
76157;SDS011;64907;51.574;6.502;2024-01-27T02:40:09;23.27;;;7.50;;
76157;SDS011;64907;51.574;6.502;2024-01-27T02:42:37;22.77;;;7.68;;
76157;SDS011;64907;51.574;6.502;2024-01-27T02:45:02;29.60;;;9.13;;
76157;SDS011;64907;51.574;6.502;2024-01-27T02:47:29;18.58;;;7.35;;
76157;SDS011;64907;51.574;6.502;2024-01-27T02:49:54;25.10;;;7.30;;
76157;SDS011;64907;51.574;6.502;2024-01-27T02:52:19;24.48;;;8.82;;
76157;SDS011;64907;51.574;6.502;2024-01-27T02:54:45;26.65;;;9.05;;
76157;SDS011;64907;51.574;6.502;2024-01-27T02:57:11;21.23;;;7.68;;
76157;SDS011;64907;51.574;6.502;2024-01-27T02:59:36;27.63;;;9.52;;
76157;SDS011;64907;51.574;6.502;2024-01-27T03:02:03;16.23;;;7.75;;
76157;SDS011;64907;51.574;6.502;2024-01-27T03:04:29;20.07;;;7.50;;
76157;SDS011;64907;51.574;6.502;2024-01-27T03:06:54;28.70;;;7.85;;
76157;SDS011;64907;51.574;6.502;2024-01-27T03:09:19;16.67;;;8.68;;
76157;SDS011;64907;51.574;6.502;2024-01-27T03:11:44;24.88;;;9.05;;
76157;SDS011;64907;51.574;6.502;2024-01-27T03:14:09;25.05;;;7.63;;
76157;SDS011;64907;51.574;6.502;2024-01-27T03:16:35;17.65;;;7.88;;
76157;SDS011;64907;51.574;6.502;2024-01-27T03:19:00;17.67;;;7.32;;
76157;SDS011;64907;51.574;6.502;2024-01-27T03:21:26;24.47;;;8.30;;
76157;SDS011;64907;51.574;6.502;2024-01-27T03:23:51;23.92;;;8.88;;
76157;SDS011;64907;51.574;6.502;2024-01-27T03:26:16;22.80;;;7.77;;
76157;SDS011;64907;51.574;6.502;2024-01-27T03:28:41;25.08;;;8.82;;
76157;SDS011;64907;51.574;6.502;2024-01-27T03:31:06;23.52;;;8.90;;
76157;SDS011;64907;51.574;6.502;2024-01-27T03:33:31;22.58;;;9.30;;
76157;SDS011;64907;51.574;6.502;2024-01-27T03:35:57;24.25;;;9.75;;
76157;SDS011;64907;51.574;6.502;2024-01-27T03:38:23;26.17;;;9.50;;
76157;SDS011;64907;51.574;6.502;2024-01-27T03:40:48;24.15;;;9.20;;
76157;SDS011;64907;51.574;6.502;2024-01-27T03:43:13;24.17;;;9.05;;
76157;SDS011;64907;51.574;6.502;2024-01-27T03:45:38;18.10;;;9.75;;
76157;SDS011;64907;51.574;6.502;2024-01-27T03:48:04;25.50;;;9.90;;
76157;SDS011;64907;51.574;6.502;2024-01-27T03:50:29;26.58;;;9.52;;
76157;SDS011;64907;51.574;6.502;2024-01-27T03:52:54;27.98;;;9.73;;
76157;SDS011;64907;51.574;6.502;2024-01-27T03:55:22;26.05;;;9.70;;
76157;SDS011;64907;51.574;6.502;2024-01-27T03:57:48;26.52;;;10.35;;
76157;SDS011;64907;51.574;6.502;2024-01-27T04:00:13;23.33;;;10.75;;
76157;SDS011;64907;51.574;6.502;2024-01-27T04:02:40;26.55;;;9.90;;
76157;SDS011;64907;51.574;6.502;2024-01-27T04:05:05;21.63;;;9.93;;
76157;SDS011;64907;51.574;6.502;2024-01-27T04:07:31;28.85;;;11.13;;
76157;SDS011;64907;51.574;6.502;2024-01-27T04:09:56;26.27;;;10.67;;
76157;SDS011;64907;51.574;6.502;2024-01-27T04:12:21;28.95;;;11.68;;
76157;SDS011;64907;51.574;6.502;2024-01-27T04:14:46;27.67;;;9.45;;
76157;SDS011;64907;51.574;6.502;2024-01-27T04:17:11;35.37;;;12.13;;
76157;SDS011;64907;51.574;6.502;2024-01-27T04:19:37;27.20;;;10.25;;
76157;SDS011;64907;51.574;6.502;2024-01-27T04:22:02;23.30;;;10.50;;
76157;SDS011;64907;51.574;6.502;2024-01-27T04:24:28;21.65;;;10.93;;
76157;SDS011;64907;51.574;6.502;2024-01-27T04:26:53;28.92;;;11.02;;
76157;SDS011;64907;51.574;6.502;2024-01-27T04:29:18;28.23;;;10.80;;
76157;SDS011;64907;51.574;6.502;2024-01-27T04:31:43;31.30;;;11.88;;
76157;SDS011;64907;51.574;6.502;2024-01-27T04:34:14;28.20;;;11.27;;
76157;SDS011;64907;51.574;6.502;2024-01-27T04:36:41;32.22;;;10.95;;
76157;SDS011;64907;51.574;6.502;2024-01-27T04:39:06;24.85;;;11.35;;
76157;SDS011;64907;51.574;6.502;2024-01-27T04:41:31;28.50;;;10.77;;
76157;SDS011;64907;51.574;6.502;2024-01-27T04:43:56;29.38;;;11.25;;
76157;SDS011;64907;51.574;6.502;2024-01-27T04:46:23;28.80;;;11.93;;
76157;SDS011;64907;51.574;6.502;2024-01-27T04:48:48;27.67;;;13.02;;
76157;SDS011;64907;51.574;6.502;2024-01-27T04:53:43;29.58;;;11.82;;
76157;SDS011;64907;51.574;6.502;2024-01-27T04:56:09;22.15;;;10.73;;
76157;SDS011;64907;51.574;6.502;2024-01-27T04:58:34;26.40;;;11.45;;
76157;SDS011;64907;51.574;6.502;2024-01-27T05:01:00;26.20;;;11.98;;
76157;SDS011;64907;51.574;6.502;2024-01-27T05:03:26;25.02;;;12.18;;
76157;SDS011;64907;51.574;6.502;2024-01-27T05:05:57;27.50;;;12.65;;
76157;SDS011;64907;51.574;6.502;2024-01-27T05:08:22;33.92;;;12.10;;
76157;SDS011;64907;51.574;6.502;2024-01-27T05:10:47;25.63;;;12.13;;
76157;SDS011;64907;51.574;6.502;2024-01-27T05:13:14;23.27;;;11.40;;
76157;SDS011;64907;51.574;6.502;2024-01-27T05:15:39;28.02;;;11.65;;
76157;SDS011;64907;51.574;6.502;2024-01-27T05:18:04;28.53;;;12.43;;
76157;SDS011;64907;51.574;6.502;2024-01-27T05:20:29;24.65;;;12.07;;
76157;SDS011;64907;51.574;6.502;2024-01-27T05:25:30;22.02;;;11.38;;
76157;SDS011;64907;51.574;6.502;2024-01-27T05:27:58;29.77;;;11.80;;
76157;SDS011;64907;51.574;6.502;2024-01-27T05:30:23;26.45;;;11.98;;
76157;SDS011;64907;51.574;6.502;2024-01-27T05:32:48;25.73;;;12.25;;
76157;SDS011;64907;51.574;6.502;2024-01-27T05:35:14;22.88;;;11.77;;
76157;SDS011;64907;51.574;6.502;2024-01-27T05:37:40;30.60;;;13.18;;
76157;SDS011;64907;51.574;6.502;2024-01-27T05:40:06;31.35;;;12.93;;
76157;SDS011;64907;51.574;6.502;2024-01-27T05:42:31;29.60;;;12.88;;
76157;SDS011;64907;51.574;6.502;2024-01-27T05:44:56;24.00;;;11.20;;
76157;SDS011;64907;51.574;6.502;2024-01-27T05:47:35;29.48;;;11.60;;
76157;SDS011;64907;51.574;6.502;2024-01-27T05:50:00;29.48;;;12.20;;
76157;SDS011;64907;51.574;6.502;2024-01-27T05:52:25;27.77;;;12.05;;
76157;SDS011;64907;51.574;6.502;2024-01-27T05:54:52;26.53;;;11.80;;
76157;SDS011;64907;51.574;6.502;2024-01-27T05:57:18;21.95;;;10.68;;
76157;SDS011;64907;51.574;6.502;2024-01-27T05:59:43;28.37;;;11.17;;
76157;SDS011;64907;51.574;6.502;2024-01-27T06:02:10;29.70;;;11.13;;
76157;SDS011;64907;51.574;6.502;2024-01-27T06:04:35;22.65;;;10.95;;
76157;SDS011;64907;51.574;6.502;2024-01-27T06:07:00;24.13;;;11.33;;
76157;SDS011;64907;51.574;6.502;2024-01-27T06:09:26;25.85;;;11.80;;
76157;SDS011;64907;51.574;6.502;2024-01-27T06:14:20;25.63;;;11.30;;
76157;SDS011;64907;51.574;6.502;2024-01-27T06:16:45;29.70;;;11.17;;
76157;SDS011;64907;51.574;6.502;2024-01-27T06:19:11;24.73;;;11.25;;
76157;SDS011;64907;51.574;6.502;2024-01-27T06:21:36;18.37;;;11.47;;
76157;SDS011;64907;51.574;6.502;2024-01-27T06:24:01;29.50;;;12.43;;
76157;SDS011;64907;51.574;6.502;2024-01-27T06:26:26;32.40;;;13.10;;
76157;SDS011;64907;51.574;6.502;2024-01-27T06:28:51;27.60;;;11.52;;
76157;SDS011;64907;51.574;6.502;2024-01-27T06:33:46;21.48;;;11.93;;
76157;SDS011;64907;51.574;6.502;2024-01-27T06:36:11;27.15;;;12.32;;
76157;SDS011;64907;51.574;6.502;2024-01-27T06:38:39;22.30;;;12.57;;
76157;SDS011;64907;51.574;6.502;2024-01-27T06:41:04;24.35;;;11.85;;
76157;SDS011;64907;51.574;6.502;2024-01-27T06:43:30;24.92;;;12.30;;
76157;SDS011;64907;51.574;6.502;2024-01-27T06:45:55;28.52;;;11.65;;
76157;SDS011;64907;51.574;6.502;2024-01-27T06:48:22;30.02;;;11.50;;
76157;SDS011;64907;51.574;6.502;2024-01-27T06:50:50;24.98;;;11.80;;
76157;SDS011;64907;51.574;6.502;2024-01-27T06:55:45;28.60;;;11.55;;
76157;SDS011;64907;51.574;6.502;2024-01-27T06:58:10;23.25;;;12.05;;
76157;SDS011;64907;51.574;6.502;2024-01-27T07:00:35;27.40;;;11.43;;
76157;SDS011;64907;51.574;6.502;2024-01-27T07:03:01;31.35;;;11.38;;
76157;SDS011;64907;51.574;6.502;2024-01-27T07:05:26;29.55;;;11.95;;
76157;SDS011;64907;51.574;6.502;2024-01-27T07:07:51;27.63;;;11.15;;
76157;SDS011;64907;51.574;6.502;2024-01-27T07:10:23;30.05;;;13.50;;
76157;SDS011;64907;51.574;6.502;2024-01-27T07:12:49;28.38;;;12.82;;
76157;SDS011;64907;51.574;6.502;2024-01-27T07:15:14;29.88;;;12.00;;
76157;SDS011;64907;51.574;6.502;2024-01-27T07:17:51;34.63;;;11.90;;
76157;SDS011;64907;51.574;6.502;2024-01-27T07:20:16;28.60;;;11.88;;
76157;SDS011;64907;51.574;6.502;2024-01-27T07:22:41;27.55;;;12.07;;
76157;SDS011;64907;51.574;6.502;2024-01-27T07:25:08;26.33;;;11.27;;
76157;SDS011;64907;51.574;6.502;2024-01-27T07:27:41;26.30;;;11.07;;
76157;SDS011;64907;51.574;6.502;2024-01-27T07:30:06;28.15;;;10.65;;
76157;SDS011;64907;51.574;6.502;2024-01-27T07:32:34;26.33;;;10.02;;
76157;SDS011;64907;51.574;6.502;2024-01-27T07:37:31;26.45;;;10.18;;
76157;SDS011;64907;51.574;6.502;2024-01-27T07:39:58;23.60;;;10.27;;
76157;SDS011;64907;51.574;6.502;2024-01-27T07:42:23;29.27;;;10.60;;
76157;SDS011;64907;51.574;6.502;2024-01-27T07:44:48;26.30;;;9.88;;
76157;SDS011;64907;51.574;6.502;2024-01-27T07:47:15;31.30;;;10.65;;
76157;SDS011;64907;51.574;6.502;2024-01-27T07:49:41;19.42;;;9.80;;
76157;SDS011;64907;51.574;6.502;2024-01-27T07:52:06;25.67;;;10.07;;
76157;SDS011;64907;51.574;6.502;2024-01-27T07:54:32;22.67;;;10.52;;
76157;SDS011;64907;51.574;6.502;2024-01-27T08:02:12;27.08;;;10.45;;
76157;SDS011;64907;51.574;6.502;2024-01-27T08:04:38;19.17;;;9.90;;
76157;SDS011;64907;51.574;6.502;2024-01-27T08:07:03;32.00;;;10.30;;
76157;SDS011;64907;51.574;6.502;2024-01-27T08:09:34;24.73;;;9.48;;
76157;SDS011;64907;51.574;6.502;2024-01-27T08:11:59;28.55;;;10.30;;
76157;SDS011;64907;51.574;6.502;2024-01-27T08:14:25;25.58;;;10.63;;
76157;SDS011;64907;51.574;6.502;2024-01-27T08:16:50;24.55;;;9.40;;
76157;SDS011;64907;51.574;6.502;2024-01-27T08:19:16;26.33;;;9.52;;
76157;SDS011;64907;51.574;6.502;2024-01-27T08:24:14;29.23;;;10.95;;
76157;SDS011;64907;51.574;6.502;2024-01-27T08:29:09;29.85;;;10.35;;
76157;SDS011;64907;51.574;6.502;2024-01-27T08:31:35;22.90;;;9.35;;
76157;SDS011;64907;51.574;6.502;2024-01-27T08:34:03;31.30;;;12.32;;
76157;SDS011;64907;51.574;6.502;2024-01-27T08:36:28;24.65;;;10.80;;
76157;SDS011;64907;51.574;6.502;2024-01-27T08:38:53;30.35;;;11.55;;
76157;SDS011;64907;51.574;6.502;2024-01-27T08:41:19;27.98;;;10.88;;
76157;SDS011;64907;51.574;6.502;2024-01-27T08:43:44;28.42;;;12.52;;
76157;SDS011;64907;51.574;6.502;2024-01-27T08:46:10;30.53;;;12.47;;
76157;SDS011;64907;51.574;6.502;2024-01-27T08:51:08;25.58;;;10.52;;
76157;SDS011;64907;51.574;6.502;2024-01-27T08:53:46;27.23;;;10.23;;
76157;SDS011;64907;51.574;6.502;2024-01-27T08:56:29;25.65;;;11.18;;
76157;SDS011;64907;51.574;6.502;2024-01-27T08:58:55;27.52;;;10.63;;
76157;SDS011;64907;51.574;6.502;2024-01-27T09:01:20;24.52;;;10.20;;
76157;SDS011;64907;51.574;6.502;2024-01-27T09:03:46;30.35;;;10.23;;
76157;SDS011;64907;51.574;6.502;2024-01-27T09:06:11;22.27;;;10.18;;
76157;SDS011;64907;51.574;6.502;2024-01-27T09:11:06;21.63;;;11.23;;
76157;SDS011;64907;51.574;6.502;2024-01-27T09:16:01;25.95;;;10.52;;
76157;SDS011;64907;51.574;6.502;2024-01-27T09:18:27;30.35;;;10.23;;
76157;SDS011;64907;51.574;6.502;2024-01-27T09:20:54;26.40;;;10.95;;
76157;SDS011;64907;51.574;6.502;2024-01-27T09:23:19;27.77;;;9.68;;
76157;SDS011;64907;51.574;6.502;2024-01-27T09:25:44;32.17;;;9.43;;
76157;SDS011;64907;51.574;6.502;2024-01-27T09:28:09;22.13;;;9.57;;
76157;SDS011;64907;51.574;6.502;2024-01-27T09:30:34;22.85;;;9.55;;
76157;SDS011;64907;51.574;6.502;2024-01-27T09:33:00;26.52;;;9.65;;
76157;SDS011;64907;51.574;6.502;2024-01-27T09:35:26;32.42;;;9.80;;
76157;SDS011;64907;51.574;6.502;2024-01-27T09:37:51;27.33;;;9.77;;
76157;SDS011;64907;51.574;6.502;2024-01-27T09:40:16;21.13;;;9.63;;
76157;SDS011;64907;51.574;6.502;2024-01-27T09:45:23;21.85;;;9.40;;
76157;SDS011;64907;51.574;6.502;2024-01-27T09:47:48;22.42;;;8.82;;
76157;SDS011;64907;51.574;6.502;2024-01-27T09:50:17;23.02;;;8.93;;
76157;SDS011;64907;51.574;6.502;2024-01-27T09:52:45;32.63;;;10.25;;
76157;SDS011;64907;51.574;6.502;2024-01-27T09:55:10;24.33;;;9.40;;
76157;SDS011;64907;51.574;6.502;2024-01-27T09:57:36;23.88;;;9.27;;
76157;SDS011;64907;51.574;6.502;2024-01-27T10:02:32;22.15;;;8.57;;
76157;SDS011;64907;51.574;6.502;2024-01-27T10:04:57;21.92;;;9.07;;
76157;SDS011;64907;51.574;6.502;2024-01-27T10:07:25;19.85;;;8.70;;
76157;SDS011;64907;51.574;6.502;2024-01-27T10:09:52;23.75;;;9.25;;
76157;SDS011;64907;51.574;6.502;2024-01-27T10:14:48;23.48;;;8.95;;
76157;SDS011;64907;51.574;6.502;2024-01-27T10:17:23;23.65;;;8.48;;
76157;SDS011;64907;51.574;6.502;2024-01-27T10:19:59;22.55;;;7.97;;
76157;SDS011;64907;51.574;6.502;2024-01-27T10:22:26;28.13;;;8.80;;
76157;SDS011;64907;51.574;6.502;2024-01-27T10:24:54;16.30;;;8.02;;
76157;SDS011;64907;51.574;6.502;2024-01-27T10:27:20;18.13;;;8.30;;
76157;SDS011;64907;51.574;6.502;2024-01-27T10:29:52;20.20;;;8.03;;
76157;SDS011;64907;51.574;6.502;2024-01-27T10:32:18;24.00;;;8.13;;
76157;SDS011;64907;51.574;6.502;2024-01-27T10:34:43;24.47;;;8.37;;
76157;SDS011;64907;51.574;6.502;2024-01-27T10:37:11;19.00;;;7.77;;
76157;SDS011;64907;51.574;6.502;2024-01-27T10:39:39;18.95;;;7.57;;
76157;SDS011;64907;51.574;6.502;2024-01-27T10:42:05;18.63;;;7.60;;
76157;SDS011;64907;51.574;6.502;2024-01-27T10:44:31;25.10;;;8.65;;
76157;SDS011;64907;51.574;6.502;2024-01-27T10:49:33;17.40;;;7.50;;
76157;SDS011;64907;51.574;6.502;2024-01-27T10:52:08;24.65;;;7.75;;
76157;SDS011;64907;51.574;6.502;2024-01-27T10:54:34;18.65;;;6.53;;
76157;SDS011;64907;51.574;6.502;2024-01-27T10:57:00;20.15;;;6.60;;
76157;SDS011;64907;51.574;6.502;2024-01-27T10:59:27;19.10;;;7.28;;
76157;SDS011;64907;51.574;6.502;2024-01-27T11:01:53;19.60;;;6.75;;
76157;SDS011;64907;51.574;6.502;2024-01-27T11:04:19;17.88;;;6.25;;
76157;SDS011;64907;51.574;6.502;2024-01-27T11:09:18;18.52;;;6.32;;
76157;SDS011;64907;51.574;6.502;2024-01-27T11:11:43;18.05;;;6.53;;
76157;SDS011;64907;51.574;6.502;2024-01-27T11:14:11;12.48;;;5.95;;
76157;SDS011;64907;51.574;6.502;2024-01-27T11:16:36;14.75;;;6.03;;
76157;SDS011;64907;51.574;6.502;2024-01-27T11:19:09;14.38;;;6.38;;
76157;SDS011;64907;51.574;6.502;2024-01-27T11:21:36;15.52;;;6.45;;
76157;SDS011;64907;51.574;6.502;2024-01-27T11:24:13;22.45;;;6.53;;
76157;SDS011;64907;51.574;6.502;2024-01-27T11:26:40;23.02;;;6.43;;
76157;SDS011;64907;51.574;6.502;2024-01-27T11:29:09;18.25;;;6.38;;
76157;SDS011;64907;51.574;6.502;2024-01-27T11:31:50;15.30;;;5.85;;
76157;SDS011;64907;51.574;6.502;2024-01-27T11:37:09;20.35;;;6.55;;
76157;SDS011;64907;51.574;6.502;2024-01-27T11:39:34;17.65;;;5.82;;
76157;SDS011;64907;51.574;6.502;2024-01-27T11:42:06;18.57;;;6.33;;
76157;SDS011;64907;51.574;6.502;2024-01-27T11:47:01;15.32;;;5.53;;
76157;SDS011;64907;51.574;6.502;2024-01-27T11:49:26;17.73;;;6.30;;
76157;SDS011;64907;51.574;6.502;2024-01-27T11:51:51;16.00;;;6.32;;
76157;SDS011;64907;51.574;6.502;2024-01-27T11:54:18;19.40;;;7.03;;
76157;SDS011;64907;51.574;6.502;2024-01-27T11:59:14;18.88;;;6.03;;
76157;SDS011;64907;51.574;6.502;2024-01-27T12:01:39;14.50;;;5.57;;
76157;SDS011;64907;51.574;6.502;2024-01-27T12:04:04;14.07;;;5.70;;
76157;SDS011;64907;51.574;6.502;2024-01-27T12:06:30;12.82;;;5.88;;
76157;SDS011;64907;51.574;6.502;2024-01-27T12:08:56;14.85;;;5.90;;
76157;SDS011;64907;51.574;6.502;2024-01-27T12:11:24;17.50;;;6.15;;
76157;SDS011;64907;51.574;6.502;2024-01-27T12:16:22;19.00;;;5.68;;
76157;SDS011;64907;51.574;6.502;2024-01-27T12:18:51;16.70;;;5.65;;
76157;SDS011;64907;51.574;6.502;2024-01-27T12:21:18;18.55;;;6.68;;
76157;SDS011;64907;51.574;6.502;2024-01-27T12:23:50;17.70;;;6.25;;
76157;SDS011;64907;51.574;6.502;2024-01-27T12:26:15;16.52;;;6.35;;
76157;SDS011;64907;51.574;6.502;2024-01-27T12:28:41;19.73;;;6.20;;
76157;SDS011;64907;51.574;6.502;2024-01-27T12:31:06;16.92;;;6.50;;
76157;SDS011;64907;51.574;6.502;2024-01-27T12:33:31;20.38;;;5.57;;
76157;SDS011;64907;51.574;6.502;2024-01-27T12:35:56;15.77;;;6.03;;
76157;SDS011;64907;51.574;6.502;2024-01-27T12:38:23;13.27;;;5.63;;
76157;SDS011;64907;51.574;6.502;2024-01-27T12:40:48;18.13;;;5.80;;
76157;SDS011;64907;51.574;6.502;2024-01-27T12:43:13;16.30;;;6.40;;
76157;SDS011;64907;51.574;6.502;2024-01-27T12:45:40;21.73;;;6.07;;
76157;SDS011;64907;51.574;6.502;2024-01-27T12:48:12;15.40;;;5.22;;
76157;SDS011;64907;51.574;6.502;2024-01-27T12:50:39;15.23;;;5.47;;
76157;SDS011;64907;51.574;6.502;2024-01-27T12:53:05;16.98;;;5.90;;
76157;SDS011;64907;51.574;6.502;2024-01-27T12:55:30;17.20;;;5.50;;
76157;SDS011;64907;51.574;6.502;2024-01-27T12:57:55;15.25;;;5.07;;
76157;SDS011;64907;51.574;6.502;2024-01-27T13:02:51;17.95;;;5.03;;
76157;SDS011;64907;51.574;6.502;2024-01-27T13:05:17;14.25;;;4.50;;
76157;SDS011;64907;51.574;6.502;2024-01-27T13:07:49;13.55;;;5.25;;
76157;SDS011;64907;51.574;6.502;2024-01-27T13:12:50;13.77;;;5.65;;
76157;SDS011;64907;51.574;6.502;2024-01-27T13:15:15;15.65;;;5.25;;
76157;SDS011;64907;51.574;6.502;2024-01-27T13:17:40;9.95;;;4.40;;
76157;SDS011;64907;51.574;6.502;2024-01-27T13:20:08;11.95;;;4.43;;
76157;SDS011;64907;51.574;6.502;2024-01-27T13:22:35;17.33;;;5.20;;
76157;SDS011;64907;51.574;6.502;2024-01-27T13:25:02;18.48;;;5.78;;
76157;SDS011;64907;51.574;6.502;2024-01-27T13:27:31;18.08;;;5.03;;
76157;SDS011;64907;51.574;6.502;2024-01-27T13:30:02;11.07;;;4.88;;
76157;SDS011;64907;51.574;6.502;2024-01-27T13:32:27;10.85;;;4.68;;
76157;SDS011;64907;51.574;6.502;2024-01-27T13:34:52;19.90;;;4.67;;
76157;SDS011;64907;51.574;6.502;2024-01-27T13:37:36;12.87;;;4.37;;
76157;SDS011;64907;51.574;6.502;2024-01-27T13:40:03;9.85;;;4.20;;
76157;SDS011;64907;51.574;6.502;2024-01-27T13:42:29;14.05;;;4.18;;
76157;SDS011;64907;51.574;6.502;2024-01-27T13:44:55;9.88;;;4.60;;
76157;SDS011;64907;51.574;6.502;2024-01-27T13:47:20;13.45;;;4.00;;
76157;SDS011;64907;51.574;6.502;2024-01-27T13:49:45;12.05;;;4.20;;
76157;SDS011;64907;51.574;6.502;2024-01-27T13:52:12;12.93;;;4.60;;
76157;SDS011;64907;51.574;6.502;2024-01-27T13:54:38;9.55;;;3.85;;
76157;SDS011;64907;51.574;6.502;2024-01-27T13:57:03;17.33;;;4.30;;
76157;SDS011;64907;51.574;6.502;2024-01-27T13:59:28;11.85;;;4.65;;
76157;SDS011;64907;51.574;6.502;2024-01-27T14:01:54;14.15;;;4.60;;
76157;SDS011;64907;51.574;6.502;2024-01-27T14:04:21;14.80;;;4.80;;
76157;SDS011;64907;51.574;6.502;2024-01-27T14:06:46;9.77;;;4.32;;
76157;SDS011;64907;51.574;6.502;2024-01-27T14:09:11;10.18;;;3.60;;
76157;SDS011;64907;51.574;6.502;2024-01-27T14:11:39;16.35;;;4.43;;
76157;SDS011;64907;51.574;6.502;2024-01-27T14:14:06;14.05;;;4.32;;
76157;SDS011;64907;51.574;6.502;2024-01-27T14:16:31;9.85;;;4.90;;
76157;SDS011;64907;51.574;6.502;2024-01-27T14:18:58;8.40;;;4.05;;
76157;SDS011;64907;51.574;6.502;2024-01-27T14:21:27;11.80;;;4.03;;
76157;SDS011;64907;51.574;6.502;2024-01-27T14:23:53;12.43;;;3.67;;
76157;SDS011;64907;51.574;6.502;2024-01-27T14:26:28;14.25;;;3.45;;
76157;SDS011;64907;51.574;6.502;2024-01-27T14:28:56;12.88;;;3.83;;
76157;SDS011;64907;51.574;6.502;2024-01-27T14:31:21;10.73;;;3.63;;
76157;SDS011;64907;51.574;6.502;2024-01-27T14:33:47;9.90;;;3.88;;
76157;SDS011;64907;51.574;6.502;2024-01-27T14:36:12;13.95;;;4.53;;
76157;SDS011;64907;51.574;6.502;2024-01-27T14:38:39;11.68;;;3.67;;
76157;SDS011;64907;51.574;6.502;2024-01-27T14:43:40;10.30;;;3.13;;
76157;SDS011;64907;51.574;6.502;2024-01-27T14:46:05;10.63;;;3.67;;
76157;SDS011;64907;51.574;6.502;2024-01-27T14:48:46;9.90;;;4.18;;
76157;SDS011;64907;51.574;6.502;2024-01-27T14:51:13;9.57;;;3.58;;
76157;SDS011;64907;51.574;6.502;2024-01-27T14:53:38;13.75;;;3.78;;
76157;SDS011;64907;51.574;6.502;2024-01-27T14:56:04;12.40;;;3.90;;
76157;SDS011;64907;51.574;6.502;2024-01-27T14:58:31;9.10;;;3.70;;
76157;SDS011;64907;51.574;6.502;2024-01-27T15:00:57;11.57;;;4.35;;
76157;SDS011;64907;51.574;6.502;2024-01-27T15:03:22;18.30;;;4.50;;
76157;SDS011;64907;51.574;6.502;2024-01-27T15:05:54;11.57;;;4.38;;
76157;SDS011;64907;51.574;6.502;2024-01-27T15:08:21;10.38;;;3.65;;
76157;SDS011;64907;51.574;6.502;2024-01-27T15:13:17;10.20;;;4.05;;
76157;SDS011;64907;51.574;6.502;2024-01-27T15:15:45;9.50;;;3.92;;
76157;SDS011;64907;51.574;6.502;2024-01-27T15:18:10;10.45;;;3.85;;
76157;SDS011;64907;51.574;6.502;2024-01-27T15:20:43;8.17;;;3.70;;
76157;SDS011;64907;51.574;6.502;2024-01-27T15:23:15;9.98;;;4.05;;
76157;SDS011;64907;51.574;6.502;2024-01-27T15:25:40;11.68;;;3.95;;
76157;SDS011;64907;51.574;6.502;2024-01-27T15:30:43;9.52;;;3.40;;
76157;SDS011;64907;51.574;6.502;2024-01-27T15:33:12;10.65;;;3.80;;
76157;SDS011;64907;51.574;6.502;2024-01-27T15:40:38;11.60;;;6.70;;
76157;SDS011;64907;51.574;6.502;2024-01-27T15:43:05;18.95;;;5.97;;
76157;SDS011;64907;51.574;6.502;2024-01-27T15:45:33;18.00;;;6.10;;
76157;SDS011;64907;51.574;6.502;2024-01-27T15:48:05;14.10;;;4.88;;
76157;SDS011;64907;51.574;6.502;2024-01-27T15:50:30;9.98;;;5.20;;